sensor_id;sensor_type;location;lat;lon;timestamp;pressure;altitude;pressure_sealevel;temperature;humidity
43824;BME280;29470;53.550;9.926;2023-08-20T00:00:42;101682.38;;;22.77;94.49
43824;BME280;29470;53.550;9.926;2023-08-20T00:05:46;101711.00;;;22.42;97.59
43824;BME280;29470;53.550;9.926;2023-08-20T00:10:48;101713.28;;;22.33;97.36
43824;BME280;29470;53.550;9.926;2023-08-20T00:15:53;101713.69;;;22.68;94.81
43824;BME280;29470;53.550;9.926;2023-08-20T00:20:56;101723.31;;;22.43;96.42
43824;BME280;29470;53.550;9.926;2023-08-20T00:26:00;101721.16;;;22.56;95.50
43824;BME280;29470;53.550;9.926;2023-08-20T00:31:05;101716.63;;;22.51;95.22
43824;BME280;29470;53.550;9.926;2023-08-20T00:36:08;101710.78;;;22.60;95.00
43824;BME280;29470;53.550;9.926;2023-08-20T00:41:10;101721.78;;;22.48;94.56
43824;BME280;29470;53.550;9.926;2023-08-20T00:46:14;101728.72;;;22.71;92.87
43824;BME280;29470;53.550;9.926;2023-08-20T00:51:17;101738.63;;;22.29;96.96
43824;BME280;29470;53.550;9.926;2023-08-20T00:56:20;101726.47;;;22.57;93.71
43824;BME280;29470;53.550;9.926;2023-08-20T01:01:25;101736.44;;;22.42;95.83
43824;BME280;29470;53.550;9.926;2023-08-20T01:06:35;101739.34;;;22.25;97.87
43824;BME280;29470;53.550;9.926;2023-08-20T01:11:46;101728.06;;;22.29;96.44
43824;BME280;29470;53.550;9.926;2023-08-20T01:16:51;101732.25;;;22.22;96.98
43824;BME280;29470;53.550;9.926;2023-08-20T01:22:05;101737.28;;;22.16;98.63
43824;BME280;29470;53.550;9.926;2023-08-20T01:27:26;101735.75;;;22.23;95.49
43824;BME280;29470;53.550;9.926;2023-08-20T01:32:33;101737.31;;;22.18;96.97
43824;BME280;29470;53.550;9.926;2023-08-20T01:37:36;101735.81;;;22.25;95.71
43824;BME280;29470;53.550;9.926;2023-08-20T01:42:39;101735.09;;;22.29;95.75
43824;BME280;29470;53.550;9.926;2023-08-20T01:47:44;101746.22;;;21.97;99.01
43824;BME280;29470;53.550;9.926;2023-08-20T01:52:47;101745.81;;;21.86;100.00
43824;BME280;29470;53.550;9.926;2023-08-20T01:57:50;101737.53;;;22.00;97.75
43824;BME280;29470;53.550;9.926;2023-08-20T02:02:55;101754.25;;;22.00;100.00
43824;BME280;29470;53.550;9.926;2023-08-20T02:07:58;101744.38;;;21.95;100.00
43824;BME280;29470;53.550;9.926;2023-08-20T02:13:01;101753.47;;;21.80;100.00
43824;BME280;29470;53.550;9.926;2023-08-20T02:18:06;101757.53;;;21.95;100.00
43824;BME280;29470;53.550;9.926;2023-08-20T02:23:09;101762.53;;;21.87;100.00
43824;BME280;29470;53.550;9.926;2023-08-20T02:28:12;101757.41;;;21.91;100.00
43824;BME280;29470;53.550;9.926;2023-08-20T02:33:16;101757.16;;;22.08;100.00
43824;BME280;29470;53.550;9.926;2023-08-20T02:38:19;101749.88;;;22.25;100.00
43824;BME280;29470;53.550;9.926;2023-08-20T02:43:22;101745.78;;;22.09;100.00
43824;BME280;29470;53.550;9.926;2023-08-20T02:48:26;101753.78;;;21.88;100.00
43824;BME280;29470;53.550;9.926;2023-08-20T02:53:30;101754.53;;;21.85;100.00
43824;BME280;29470;53.550;9.926;2023-08-20T02:58:33;101746.53;;;21.82;100.00
43824;BME280;29470;53.550;9.926;2023-08-20T03:03:37;101750.50;;;22.18;100.00
43824;BME280;29470;53.550;9.926;2023-08-20T03:08:43;101764.91;;;21.81;100.00
43824;BME280;29470;53.550;9.926;2023-08-20T03:13:46;101760.16;;;21.95;100.00
43824;BME280;29470;53.550;9.926;2023-08-20T03:18:50;101755.47;;;22.33;100.00
43824;BME280;29470;53.550;9.926;2023-08-20T03:23:53;101763.13;;;22.27;100.00
43824;BME280;29470;53.550;9.926;2023-08-20T03:28:56;101764.47;;;22.15;100.00
43824;BME280;29470;53.550;9.926;2023-08-20T03:34:01;101764.59;;;22.18;100.00
43824;BME280;29470;53.550;9.926;2023-08-20T03:39:04;101763.16;;;22.51;100.00
43824;BME280;29470;53.550;9.926;2023-08-20T03:44:07;101773.41;;;22.43;100.00
43824;BME280;29470;53.550;9.926;2023-08-20T03:49:11;101777.03;;;22.22;99.65
43824;BME280;29470;53.550;9.926;2023-08-20T03:54:14;101786.72;;;22.24;100.00
43824;BME280;29470;53.550;9.926;2023-08-20T03:59:17;101795.00;;;21.87;100.00
43824;BME280;29470;53.550;9.926;2023-08-20T04:04:21;101799.88;;;21.99;100.00
43824;BME280;29470;53.550;9.926;2023-08-20T04:09:24;101788.47;;;22.46;99.29
43824;BME280;29470;53.550;9.926;2023-08-20T04:14:27;101797.16;;;21.98;100.00
43824;BME280;29470;53.550;9.926;2023-08-20T04:19:31;101796.81;;;22.11;99.67
43824;BME280;29470;53.550;9.926;2023-08-20T04:24:34;101801.09;;;22.09;100.00
43824;BME280;29470;53.550;9.926;2023-08-20T04:29:37;101802.06;;;21.88;100.00
43824;BME280;29470;53.550;9.926;2023-08-20T04:34:41;101796.00;;;22.14;96.43
43824;BME280;29470;53.550;9.926;2023-08-20T04:39:43;101790.91;;;22.41;93.46
43824;BME280;29470;53.550;9.926;2023-08-20T04:44:46;101784.22;;;22.49;90.92
43824;BME280;29470;53.550;9.926;2023-08-20T04:49:51;101786.13;;;22.54;88.85
43824;BME280;29470;53.550;9.926;2023-08-20T04:54:54;101772.09;;;22.32;88.88
43824;BME280;29470;53.550;9.926;2023-08-20T04:59:57;101787.78;;;22.04;93.10
43824;BME280;29470;53.550;9.926;2023-08-20T05:05:08;101781.31;;;21.73;94.12
43824;BME280;29470;53.550;9.926;2023-08-20T05:10:11;101791.53;;;21.88;92.90
43824;BME280;29470;53.550;9.926;2023-08-20T05:20:18;101784.63;;;22.15;89.13
43824;BME280;29470;53.550;9.926;2023-08-20T05:25:21;101769.22;;;22.48;87.50
43824;BME280;29470;53.550;9.926;2023-08-20T05:30:25;101744.56;;;22.46;86.81
43824;BME280;29470;53.550;9.926;2023-08-20T05:35:31;101730.81;;;22.32;86.23
43824;BME280;29470;53.550;9.926;2023-08-20T05:40:34;101736.88;;;22.53;85.71
43824;BME280;29470;53.550;9.926;2023-08-20T05:45:37;101774.19;;;22.18;90.73
43824;BME280;29470;53.550;9.926;2023-08-20T05:50:44;101759.56;;;22.99;85.25
43824;BME280;29470;53.550;9.926;2023-08-20T05:55:47;101779.66;;;22.45;88.58
43824;BME280;29470;53.550;9.926;2023-08-20T06:00:50;101781.72;;;22.54;87.21
43824;BME280;29470;53.550;9.926;2023-08-20T06:05:56;101779.88;;;22.76;88.32
43824;BME280;29470;53.550;9.926;2023-08-20T06:11:04;101772.31;;;23.13;85.22
43824;BME280;29470;53.550;9.926;2023-08-20T06:16:07;101766.81;;;23.05;84.99
43824;BME280;29470;53.550;9.926;2023-08-20T06:21:11;101768.91;;;23.41;84.96
43824;BME280;29470;53.550;9.926;2023-08-20T06:26:15;101757.75;;;23.77;79.68
43824;BME280;29470;53.550;9.926;2023-08-20T06:31:17;101744.97;;;23.93;77.90
43824;BME280;29470;53.550;9.926;2023-08-20T06:36:22;101751.28;;;24.58;77.23
43824;BME280;29470;53.550;9.926;2023-08-20T06:41:25;101768.00;;;23.68;79.70
43824;BME280;29470;53.550;9.926;2023-08-20T06:46:27;101768.38;;;24.08;77.29
43824;BME280;29470;53.550;9.926;2023-08-20T06:51:32;101780.22;;;24.53;74.87
43824;BME280;29470;53.550;9.926;2023-08-20T06:56:34;101796.81;;;24.47;77.27
43824;BME280;29470;53.550;9.926;2023-08-20T07:01:37;101791.13;;;24.64;74.94
43824;BME280;29470;53.550;9.926;2023-08-20T07:06:41;101788.66;;;24.09;78.64
43824;BME280;29470;53.550;9.926;2023-08-20T07:11:44;101785.84;;;24.65;74.94
43824;BME280;29470;53.550;9.926;2023-08-20T07:16:50;101795.44;;;24.30;76.58
43824;BME280;29470;53.550;9.926;2023-08-20T07:21:54;101790.09;;;24.91;74.51
43824;BME280;29470;53.550;9.926;2023-08-20T07:26:57;101784.78;;;25.24;72.33
43824;BME280;29470;53.550;9.926;2023-08-20T07:32:03;101788.47;;;27.46;63.62
43824;BME280;29470;53.550;9.926;2023-08-20T07:37:07;101787.16;;;27.19;62.31
43824;BME280;29470;53.550;9.926;2023-08-20T07:42:09;101782.00;;;27.85;60.18
43824;BME280;29470;53.550;9.926;2023-08-20T07:47:13;101771.06;;;31.59;46.22
43824;BME280;29470;53.550;9.926;2023-08-20T07:52:17;101777.28;;;31.74;44.11
43824;BME280;29470;53.550;9.926;2023-08-20T07:57:20;101782.47;;;33.53;42.41
43824;BME280;29470;53.550;9.926;2023-08-20T08:02:24;101785.00;;;33.64;41.83
43824;BME280;29470;53.550;9.926;2023-08-20T08:07:29;101785.28;;;36.70;36.00
43824;BME280;29470;53.550;9.926;2023-08-20T08:12:31;101795.00;;;34.29;39.32
43824;BME280;29470;53.550;9.926;2023-08-20T08:17:34;101793.63;;;33.00;40.85
43824;BME280;29470;53.550;9.926;2023-08-20T08:22:39;101806.41;;;30.11;47.18
43824;BME280;29470;53.550;9.926;2023-08-20T08:27:42;101805.97;;;27.88;53.60
43824;BME280;29470;53.550;9.926;2023-08-20T08:33:00;101804.69;;;27.61;56.00
43824;BME280;29470;53.550;9.926;2023-08-20T08:38:05;101808.44;;;27.76;55.86
43824;BME280;29470;53.550;9.926;2023-08-20T08:43:08;101811.00;;;27.16;58.34
43824;BME280;29470;53.550;9.926;2023-08-20T08:48:17;101812.78;;;26.69;58.85
43824;BME280;29470;53.550;9.926;2023-08-20T08:53:24;101817.78;;;27.00;59.90
43824;BME280;29470;53.550;9.926;2023-08-20T08:58:28;101824.84;;;27.48;57.53
43824;BME280;29470;53.550;9.926;2023-08-20T09:03:31;101817.50;;;26.83;60.44
43824;BME280;29470;53.550;9.926;2023-08-20T09:08:36;101810.06;;;27.66;58.41
43824;BME280;29470;53.550;9.926;2023-08-20T09:13:41;101810.66;;;28.06;56.88
43824;BME280;29470;53.550;9.926;2023-08-20T09:18:45;101811.34;;;27.93;56.61
43824;BME280;29470;53.550;9.926;2023-08-20T09:23:49;101807.88;;;27.97;56.24
43824;BME280;29470;53.550;9.926;2023-08-20T09:28:55;101811.00;;;27.68;57.01
43824;BME280;29470;53.550;9.926;2023-08-20T09:33:58;101807.78;;;27.92;56.38
43824;BME280;29470;53.550;9.926;2023-08-20T09:39:02;101811.44;;;28.01;55.77
43824;BME280;29470;53.550;9.926;2023-08-20T09:44:06;101811.03;;;28.34;55.37
43824;BME280;29470;53.550;9.926;2023-08-20T09:49:12;101799.06;;;27.44;58.95
43824;BME280;29470;53.550;9.926;2023-08-20T09:54:21;101806.50;;;28.27;55.38
43824;BME280;29470;53.550;9.926;2023-08-20T09:59:28;101794.72;;;28.08;54.57
43824;BME280;29470;53.550;9.926;2023-08-20T10:04:32;101795.63;;;28.79;51.96
43824;BME280;29470;53.550;9.926;2023-08-20T10:09:37;101791.00;;;28.67;52.35
43824;BME280;29470;53.550;9.926;2023-08-20T10:14:45;101787.19;;;28.44;53.06
43824;BME280;29470;53.550;9.926;2023-08-20T10:19:48;101786.00;;;28.18;53.62
43824;BME280;29470;53.550;9.926;2023-08-20T10:24:52;101779.66;;;28.83;51.83
43824;BME280;29470;53.550;9.926;2023-08-20T10:29:55;101772.00;;;29.18;50.64
43824;BME280;29470;53.550;9.926;2023-08-20T10:34:58;101776.50;;;29.30;50.10
43824;BME280;29470;53.550;9.926;2023-08-20T10:40:03;101777.69;;;29.65;49.30
43824;BME280;29470;53.550;9.926;2023-08-20T10:45:07;101782.78;;;29.34;47.21
43824;BME280;29470;53.550;9.926;2023-08-20T10:50:15;101782.28;;;29.95;47.35
43824;BME280;29470;53.550;9.926;2023-08-20T10:55:23;101772.59;;;30.02;47.30
43824;BME280;29470;53.550;9.926;2023-08-20T11:00:26;101779.50;;;29.69;48.15
43824;BME280;29470;53.550;9.926;2023-08-20T11:05:30;101775.72;;;29.40;48.66
43824;BME280;29470;53.550;9.926;2023-08-20T11:10:34;101787.53;;;29.75;47.77
43824;BME280;29470;53.550;9.926;2023-08-20T11:15:37;101782.63;;;29.15;48.56
43824;BME280;29470;53.550;9.926;2023-08-20T11:20:40;101785.34;;;29.21;49.20
43824;BME280;29470;53.550;9.926;2023-08-20T11:25:45;101792.75;;;29.60;48.22
43824;BME280;29470;53.550;9.926;2023-08-20T11:30:49;101793.03;;;30.03;47.42
43824;BME280;29470;53.550;9.926;2023-08-20T11:35:52;101796.75;;;30.41;46.49
43824;BME280;29470;53.550;9.926;2023-08-20T11:40:58;101793.16;;;30.40;46.66
43824;BME280;29470;53.550;9.926;2023-08-20T11:46:01;101787.78;;;28.95;49.54
43824;BME280;29470;53.550;9.926;2023-08-20T11:51:04;101787.75;;;30.19;47.31
43824;BME280;29470;53.550;9.926;2023-08-20T11:56:13;101790.63;;;30.64;46.46
43824;BME280;29470;53.550;9.926;2023-08-20T12:01:17;101791.28;;;30.13;47.26
43824;BME280;29470;53.550;9.926;2023-08-20T12:06:21;101789.28;;;29.73;48.25
43824;BME280;29470;53.550;9.926;2023-08-20T12:11:27;101790.28;;;29.92;47.07
43824;BME280;29470;53.550;9.926;2023-08-20T12:16:30;101785.19;;;30.42;46.17
43824;BME280;29470;53.550;9.926;2023-08-20T12:21:33;101779.88;;;30.48;46.48
43824;BME280;29470;53.550;9.926;2023-08-20T12:26:37;101776.38;;;30.76;45.27
43824;BME280;29470;53.550;9.926;2023-08-20T12:31:41;101770.22;;;31.20;44.73
43824;BME280;29470;53.550;9.926;2023-08-20T12:36:44;101774.63;;;30.73;44.30
43824;BME280;29470;53.550;9.926;2023-08-20T12:41:48;101764.84;;;30.88;44.42
43824;BME280;29470;53.550;9.926;2023-08-20T12:46:51;101758.59;;;30.99;43.72
43824;BME280;29470;53.550;9.926;2023-08-20T12:51:54;101763.97;;;31.24;43.42
43824;BME280;29470;53.550;9.926;2023-08-20T12:56:58;101765.63;;;30.52;44.27
43824;BME280;29470;53.550;9.926;2023-08-20T13:02:01;101758.47;;;30.30;44.55
43824;BME280;29470;53.550;9.926;2023-08-20T13:07:05;101756.75;;;30.56;44.70
43824;BME280;29470;53.550;9.926;2023-08-20T13:12:10;101747.94;;;31.17;44.16
43824;BME280;29470;53.550;9.926;2023-08-20T13:17:14;101754.19;;;31.17;42.93
43824;BME280;29470;53.550;9.926;2023-08-20T13:22:18;101747.91;;;31.26;43.10
43824;BME280;29470;53.550;9.926;2023-08-20T13:27:22;101749.69;;;31.30;42.49
43824;BME280;29470;53.550;9.926;2023-08-20T13:32:26;101745.22;;;31.10;42.95
43824;BME280;29470;53.550;9.926;2023-08-20T13:37:28;101747.91;;;31.29;43.33
43824;BME280;29470;53.550;9.926;2023-08-20T13:42:34;101762.19;;;30.91;43.01
43824;BME280;29470;53.550;9.926;2023-08-20T13:47:37;101762.16;;;30.75;43.65
43824;BME280;29470;53.550;9.926;2023-08-20T13:52:40;101760.38;;;30.71;43.42
43824;BME280;29470;53.550;9.926;2023-08-20T13:57:44;101762.94;;;30.37;43.31
43824;BME280;29470;53.550;9.926;2023-08-20T14:02:50;101751.50;;;30.88;42.84
43824;BME280;29470;53.550;9.926;2023-08-20T14:07:52;101758.38;;;30.12;44.48
43824;BME280;29470;53.550;9.926;2023-08-20T14:12:57;101757.53;;;30.23;43.84
43824;BME280;29470;53.550;9.926;2023-08-20T14:17:59;101756.63;;;30.15;44.62
43824;BME280;29470;53.550;9.926;2023-08-20T14:23:03;101746.94;;;30.43;43.74
43824;BME280;29470;53.550;9.926;2023-08-20T14:28:07;101746.94;;;30.48;43.36
43824;BME280;29470;53.550;9.926;2023-08-20T14:33:10;101738.09;;;30.58;42.85
43824;BME280;29470;53.550;9.926;2023-08-20T14:38:13;101734.50;;;30.48;43.07
43824;BME280;29470;53.550;9.926;2023-08-20T14:43:17;101730.91;;;30.38;43.11
43824;BME280;29470;53.550;9.926;2023-08-20T14:48:20;101711.38;;;30.50;42.52
43824;BME280;29470;53.550;9.926;2023-08-20T14:53:23;101722.81;;;30.17;43.43
43824;BME280;29470;53.550;9.926;2023-08-20T14:58:27;101714.69;;;29.79;43.63
43824;BME280;29470;53.550;9.926;2023-08-20T15:03:33;101715.59;;;29.89;44.19
43824;BME280;29470;53.550;9.926;2023-08-20T15:08:36;101713.75;;;29.74;44.77
43824;BME280;29470;53.550;9.926;2023-08-20T15:13:40;101713.81;;;29.87;44.75
43824;BME280;29470;53.550;9.926;2023-08-20T15:18:43;101718.28;;;29.92;43.75
43824;BME280;29470;53.550;9.926;2023-08-20T15:23:45;101723.59;;;29.92;43.84
43824;BME280;29470;53.550;9.926;2023-08-20T15:28:50;101722.72;;;29.89;43.46
43824;BME280;29470;53.550;9.926;2023-08-20T15:33:52;101713.53;;;29.37;44.04
43824;BME280;29470;53.550;9.926;2023-08-20T15:38:55;101703.31;;;30.28;42.71
43824;BME280;29470;53.550;9.926;2023-08-20T15:44:00;101715.72;;;30.14;43.17
43824;BME280;29470;53.550;9.926;2023-08-20T15:49:03;101713.91;;;30.07;42.39
43824;BME280;29470;53.550;9.926;2023-08-20T15:54:06;101712.09;;;29.98;42.56
43824;BME280;29470;53.550;9.926;2023-08-20T15:59:10;101706.72;;;29.86;43.25
43824;BME280;29470;53.550;9.926;2023-08-20T16:04:13;101709.41;;;29.95;42.42
43824;BME280;29470;53.550;9.926;2023-08-20T16:09:16;101707.53;;;29.74;43.28
43824;BME280;29470;53.550;9.926;2023-08-20T16:14:39;101696.72;;;29.44;44.07
43824;BME280;29470;53.550;9.926;2023-08-20T16:19:42;101701.75;;;29.07;44.31
43824;BME280;29470;53.550;9.926;2023-08-20T16:24:45;101695.47;;;28.99;43.82
43824;BME280;29470;53.550;9.926;2023-08-20T16:29:49;101696.34;;;28.93;45.24
43824;BME280;29470;53.550;9.926;2023-08-20T16:34:52;101698.19;;;29.05;45.20
43824;BME280;29470;53.550;9.926;2023-08-20T16:39:57;101690.94;;;28.85;45.23
43824;BME280;29470;53.550;9.926;2023-08-20T16:45:01;101696.31;;;28.91;44.64
43824;BME280;29470;53.550;9.926;2023-08-20T16:50:04;101693.72;;;29.01;45.41
43824;BME280;29470;53.550;9.926;2023-08-20T16:55:08;101692.66;;;28.77;45.69
43824;BME280;29470;53.550;9.926;2023-08-20T17:00:13;101698.63;;;28.56;46.40
43824;BME280;29470;53.550;9.926;2023-08-20T17:05:16;101695.19;;;28.66;46.36
43824;BME280;29470;53.550;9.926;2023-08-20T17:10:20;101697.63;;;28.46;46.29
43824;BME280;29470;53.550;9.926;2023-08-20T17:15:27;101690.28;;;28.18;46.99
43824;BME280;29470;53.550;9.926;2023-08-20T17:20:30;101688.94;;;28.62;46.47
43824;BME280;29470;53.550;9.926;2023-08-20T17:25:33;101691.00;;;28.08;47.09
43824;BME280;29470;53.550;9.926;2023-08-20T17:30:37;101693.56;;;27.99;47.44
43824;BME280;29470;53.550;9.926;2023-08-20T17:35:40;101696.34;;;28.10;47.10
43824;BME280;29470;53.550;9.926;2023-08-20T17:40:43;101693.41;;;27.86;47.92
43824;BME280;29470;53.550;9.926;2023-08-20T17:45:48;101697.28;;;28.12;47.28
43824;BME280;29470;53.550;9.926;2023-08-20T17:50:51;101708.66;;;28.01;47.95
43824;BME280;29470;53.550;9.926;2023-08-20T17:55:54;101717.44;;;27.96;48.20
43824;BME280;29470;53.550;9.926;2023-08-20T18:01:03;101717.28;;;27.83;48.73
43824;BME280;29470;53.550;9.926;2023-08-20T18:06:06;101712.88;;;27.85;48.28
43824;BME280;29470;53.550;9.926;2023-08-20T18:11:10;101719.59;;;27.58;48.65
43824;BME280;29470;53.550;9.926;2023-08-20T18:16:14;101725.09;;;27.71;48.54
43824;BME280;29470;53.550;9.926;2023-08-20T18:21:17;101722.31;;;27.61;48.88
43824;BME280;29470;53.550;9.926;2023-08-20T18:26:20;101727.25;;;27.37;49.59
43824;BME280;29470;53.550;9.926;2023-08-20T18:31:24;101725.91;;;27.65;49.31
43824;BME280;29470;53.550;9.926;2023-08-20T18:36:27;101741.06;;;27.15;50.55
43824;BME280;29470;53.550;9.926;2023-08-20T18:41:33;101747.34;;;27.19;50.18
43824;BME280;29470;53.550;9.926;2023-08-20T18:46:37;101747.53;;;27.31;50.40
43824;BME280;29470;53.550;9.926;2023-08-20T18:51:40;101758.78;;;27.16;50.58
43824;BME280;29470;53.550;9.926;2023-08-20T18:56:43;101763.72;;;26.93;51.15
43824;BME280;29470;53.550;9.926;2023-08-20T19:01:47;101760.84;;;26.82;51.65
43824;BME280;29470;53.550;9.926;2023-08-20T19:06:51;101766.63;;;26.62;52.39
43824;BME280;29470;53.550;9.926;2023-08-20T19:11:53;101772.06;;;26.23;53.35
43824;BME280;29470;53.550;9.926;2023-08-20T19:16:58;101783.25;;;26.52;52.96
43824;BME280;29470;53.550;9.926;2023-08-20T19:22:01;101785.63;;;26.37;54.06
43824;BME280;29470;53.550;9.926;2023-08-20T19:27:04;101784.81;;;26.41;54.53
43824;BME280;29470;53.550;9.926;2023-08-20T19:32:08;101792.25;;;26.16;55.45
43824;BME280;29470;53.550;9.926;2023-08-20T19:37:11;101791.41;;;26.17;55.45
43824;BME280;29470;53.550;9.926;2023-08-20T19:42:14;101795.91;;;26.21;56.29
43824;BME280;29470;53.550;9.926;2023-08-20T19:47:18;101799.78;;;25.97;57.29
43824;BME280;29470;53.550;9.926;2023-08-20T19:52:21;101806.50;;;25.83;58.24
43824;BME280;29470;53.550;9.926;2023-08-20T19:57:24;101799.81;;;25.61;58.94
43824;BME280;29470;53.550;9.926;2023-08-20T20:02:28;101804.13;;;25.57;59.49
43824;BME280;29470;53.550;9.926;2023-08-20T20:07:31;101808.09;;;25.39;60.45
43824;BME280;29470;53.550;9.926;2023-08-20T20:12:34;101815.16;;;25.39;60.54
43824;BME280;29470;53.550;9.926;2023-08-20T20:17:38;101808.63;;;25.24;61.60
43824;BME280;29470;53.550;9.926;2023-08-20T20:22:41;101808.34;;;25.49;60.41
43824;BME280;29470;53.550;9.926;2023-08-20T20:27:46;101820.41;;;25.37;61.76
43824;BME280;29470;53.550;9.926;2023-08-20T20:32:50;101820.84;;;25.21;62.31
43824;BME280;29470;53.550;9.926;2023-08-20T20:37:53;101830.91;;;25.34;61.90
43824;BME280;29470;53.550;9.926;2023-08-20T20:42:56;101836.97;;;25.28;62.74
43824;BME280;29470;53.550;9.926;2023-08-20T20:48:00;101839.16;;;25.11;63.59
43824;BME280;29470;53.550;9.926;2023-08-20T20:53:03;101849.00;;;25.17;63.79
43824;BME280;29470;53.550;9.926;2023-08-20T20:58:06;101848.97;;;25.15;63.57
43824;BME280;29470;53.550;9.926;2023-08-20T21:03:12;101852.28;;;25.08;64.71
43824;BME280;29470;53.550;9.926;2023-08-20T21:08:16;101846.84;;;24.71;66.62
43824;BME280;29470;53.550;9.926;2023-08-20T21:13:19;101858.94;;;24.62;66.94
43824;BME280;29470;53.550;9.926;2023-08-20T21:18:23;101856.31;;;24.33;69.23
43824;BME280;29470;53.550;9.926;2023-08-20T21:23:26;101859.38;;;24.47;68.46
43824;BME280;29470;53.550;9.926;2023-08-20T21:28:29;101867.28;;;24.16;70.51
43824;BME280;29470;53.550;9.926;2023-08-20T21:33:34;101860.22;;;24.17;70.97
43824;BME280;29470;53.550;9.926;2023-08-20T21:38:37;101863.31;;;24.31;70.33
43824;BME280;29470;53.550;9.926;2023-08-20T21:43:40;101865.41;;;24.13;71.59
43824;BME280;29470;53.550;9.926;2023-08-20T21:48:44;101870.16;;;23.96;72.57
43824;BME280;29470;53.550;9.926;2023-08-20T21:53:47;101880.88;;;23.74;73.85
43824;BME280;29470;53.550;9.926;2023-08-20T21:58:50;101880.09;;;23.76;74.44
43824;BME280;29470;53.550;9.926;2023-08-20T22:03:54;101874.97;;;23.55;75.17
43824;BME280;29470;53.550;9.926;2023-08-20T22:08:57;101889.94;;;23.54;74.79
43824;BME280;29470;53.550;9.926;2023-08-20T22:14:00;101891.00;;;23.35;76.59
43824;BME280;29470;53.550;9.926;2023-08-20T22:19:05;101896.81;;;23.25;77.23
43824;BME280;29470;53.550;9.926;2023-08-20T22:24:08;101888.72;;;23.20;77.98
43824;BME280;29470;53.550;9.926;2023-08-20T22:29:11;101901.63;;;22.88;80.63
43824;BME280;29470;53.550;9.926;2023-08-20T22:34:15;101902.69;;;22.93;80.93
43824;BME280;29470;53.550;9.926;2023-08-20T22:39:18;101892.72;;;23.09;80.53
43824;BME280;29470;53.550;9.926;2023-08-20T22:44:21;101896.00;;;22.79;82.58
43824;BME280;29470;53.550;9.926;2023-08-20T22:49:25;101888.63;;;22.93;81.38
43824;BME280;29470;53.550;9.926;2023-08-20T22:54:28;101889.59;;;22.95;81.19
43824;BME280;29470;53.550;9.926;2023-08-20T22:59:31;101893.09;;;22.95;81.01
43824;BME280;29470;53.550;9.926;2023-08-20T23:04:35;101884.84;;;22.86;81.61
43824;BME280;29470;53.550;9.926;2023-08-20T23:09:38;101879.31;;;22.78;82.74
43824;BME280;29470;53.550;9.926;2023-08-20T23:14:41;101883.97;;;22.86;82.45
43824;BME280;29470;53.550;9.926;2023-08-20T23:19:45;101882.72;;;22.76;83.83
43824;BME280;29470;53.550;9.926;2023-08-20T23:24:48;101887.69;;;22.91;82.89
43824;BME280;29470;53.550;9.926;2023-08-20T23:29:51;101871.31;;;23.01;84.40
43824;BME280;29470;53.550;9.926;2023-08-20T23:34:55;101865.72;;;22.68;85.97
43824;BME280;29470;53.550;9.926;2023-08-20T23:39:58;101873.31;;;22.37;89.91
43824;BME280;29470;53.550;9.926;2023-08-20T23:45:01;101876.00;;;22.39;89.69
43824;BME280;29470;53.550;9.926;2023-08-20T23:50:07;101889.13;;;22.37;91.76
43824;BME280;29470;53.550;9.926;2023-08-20T23:55:10;101896.00;;;21.88;96.94
